sensor_id;sensor_type;location;lat;lon;timestamp;pressure;altitude;pressure_sealevel;temperature;humidity
16664;BME280;8445;51.270;9.434;2023-02-15T00:02:25;100967.31;;;2.48;85.06
16664;BME280;8445;51.270;9.434;2023-02-15T00:04:51;100962.09;;;2.48;85.57
16664;BME280;8445;51.270;9.434;2023-02-15T00:07:18;100953.38;;;2.49;84.74
16664;BME280;8445;51.270;9.434;2023-02-15T00:09:47;100955.09;;;2.50;85.41
16664;BME280;8445;51.270;9.434;2023-02-15T00:12:13;100953.38;;;2.49;84.69
16664;BME280;8445;51.270;9.434;2023-02-15T00:14:39;100960.38;;;2.47;84.57
16664;BME280;8445;51.270;9.434;2023-02-15T00:17:04;100955.19;;;2.46;85.05
16664;BME280;8445;51.270;9.434;2023-02-15T00:19:30;100952.66;;;2.41;85.06
16664;BME280;8445;51.270;9.434;2023-02-15T00:21:56;100956.97;;;2.42;84.70
16664;BME280;8445;51.270;9.434;2023-02-15T00:24:21;100958.69;;;2.43;84.61
16664;BME280;8445;51.270;9.434;2023-02-15T00:26:47;100951.81;;;2.39;84.83
16664;BME280;8445;51.270;9.434;2023-02-15T00:29:14;100944.00;;;2.37;85.45
16664;BME280;8445;51.270;9.434;2023-02-15T00:31:40;100941.41;;;2.36;84.96
16664;BME280;8445;51.270;9.434;2023-02-15T00:34:09;100933.56;;;2.37;85.22
16664;BME280;8445;51.270;9.434;2023-02-15T00:36:35;100930.06;;;2.37;85.11
16664;BME280;8445;51.270;9.434;2023-02-15T00:39:02;100930.97;;;2.36;84.77
16664;BME280;8445;51.270;9.434;2023-02-15T00:41:28;100929.28;;;2.35;84.89
16664;BME280;8445;51.270;9.434;2023-02-15T00:43:53;100937.16;;;2.30;85.00
16664;BME280;8445;51.270;9.434;2023-02-15T00:46:18;100922.31;;;2.34;85.25
16664;BME280;8445;51.270;9.434;2023-02-15T00:48:44;100919.72;;;2.32;85.30
16664;BME280;8445;51.270;9.434;2023-02-15T00:51:10;100924.09;;;2.30;84.98
16664;BME280;8445;51.270;9.434;2023-02-15T00:53:35;100905.81;;;2.30;85.21
16664;BME280;8445;51.270;9.434;2023-02-15T00:56:01;100915.44;;;2.30;85.18
16664;BME280;8445;51.270;9.434;2023-02-15T00:58:26;100913.69;;;2.29;84.75
16664;BME280;8445;51.270;9.434;2023-02-15T01:00:52;100910.19;;;2.30;84.69
16664;BME280;8445;51.270;9.434;2023-02-15T01:03:19;100919.03;;;2.22;85.26
16664;BME280;8445;51.270;9.434;2023-02-15T01:05:46;100908.53;;;2.24;85.41
16664;BME280;8445;51.270;9.434;2023-02-15T01:08:12;100914.63;;;2.25;85.03
16664;BME280;8445;51.270;9.434;2023-02-15T01:10:38;100906.75;;;2.26;84.49
16664;BME280;8445;51.270;9.434;2023-02-15T01:13:03;100906.81;;;2.25;84.72
16664;BME280;8445;51.270;9.434;2023-02-15T01:15:28;100918.13;;;2.24;84.90
16664;BME280;8445;51.270;9.434;2023-02-15T01:17:54;100912.97;;;2.20;84.42
16664;BME280;8445;51.270;9.434;2023-02-15T01:20:23;100904.25;;;2.21;85.03
16664;BME280;8445;51.270;9.434;2023-02-15T01:22:49;100910.34;;;2.20;84.77
16664;BME280;8445;51.270;9.434;2023-02-15T01:25:20;100906.06;;;2.16;84.94
16664;BME280;8445;51.270;9.434;2023-02-15T01:27:47;100900.84;;;2.16;85.08
16664;BME280;8445;51.270;9.434;2023-02-15T01:30:14;100905.22;;;2.14;84.79
16664;BME280;8445;51.270;9.434;2023-02-15T01:32:40;100896.66;;;2.06;85.10
16664;BME280;8445;51.270;9.434;2023-02-15T01:35:07;100891.47;;;2.03;84.76
16664;BME280;8445;51.270;9.434;2023-02-15T01:37:34;100893.25;;;2.01;85.18
16664;BME280;8445;51.270;9.434;2023-02-15T01:40:11;100888.97;;;1.98;85.33
16664;BME280;8445;51.270;9.434;2023-02-15T01:42:41;100886.41;;;1.93;85.55
16664;BME280;8445;51.270;9.434;2023-02-15T01:45:27;100890.75;;;1.95;85.83
16664;BME280;8445;51.270;9.434;2023-02-15T01:48:10;100889.84;;;1.96;85.34
16664;BME280;8445;51.270;9.434;2023-02-15T01:50:50;100889.00;;;1.95;85.71
16664;BME280;8445;51.270;9.434;2023-02-15T01:53:37;100886.41;;;1.93;86.08
16664;BME280;8445;51.270;9.434;2023-02-15T01:56:18;100888.19;;;1.91;84.88
16664;BME280;8445;51.270;9.434;2023-02-15T01:58:50;100890.00;;;1.88;85.63
16664;BME280;8445;51.270;9.434;2023-02-15T02:01:21;100886.47;;;1.90;84.83
16664;BME280;8445;51.270;9.434;2023-02-15T02:04:01;100880.31;;;1.95;85.65
16664;BME280;8445;51.270;9.434;2023-02-15T02:06:29;100876.00;;;1.90;85.03
16664;BME280;8445;51.270;9.434;2023-02-15T02:08:56;100872.66;;;1.84;85.38
16664;BME280;8445;51.270;9.434;2023-02-15T02:11:22;100875.31;;;1.81;85.08
16664;BME280;8445;51.270;9.434;2023-02-15T02:13:48;100877.09;;;1.77;85.56
16664;BME280;8445;51.270;9.434;2023-02-15T02:42:59;100872.19;;;1.57;86.08
16664;BME280;8445;51.270;9.434;2023-02-15T02:45:35;100865.28;;;1.54;85.49
16664;BME280;8445;51.270;9.434;2023-02-15T02:48:15;100862.66;;;1.54;85.79
16664;BME280;8445;51.270;9.434;2023-02-15T02:50:42;100853.19;;;1.47;86.26
16664;BME280;8445;51.270;9.434;2023-02-15T02:53:09;100851.44;;;1.47;85.35
16664;BME280;8445;51.270;9.434;2023-02-15T02:55:47;100857.50;;;1.51;85.39
16664;BME280;8445;51.270;9.434;2023-02-15T02:58:31;100853.06;;;1.55;84.87
16664;BME280;8445;51.270;9.434;2023-02-15T03:01:22;100849.63;;;1.53;85.24
16664;BME280;8445;51.270;9.434;2023-02-15T03:03:58;100834.03;;;1.50;85.80
16664;BME280;8445;51.270;9.434;2023-02-15T03:06:34;100828.81;;;1.51;86.08
16664;BME280;8445;51.270;9.434;2023-02-15T03:09:12;100830.53;;;1.52;85.08
16664;BME280;8445;51.270;9.434;2023-02-15T03:11:43;100831.41;;;1.51;85.31
16664;BME280;8445;51.270;9.434;2023-02-15T03:14:13;100822.75;;;1.49;84.91
16664;BME280;8445;51.270;9.434;2023-02-15T03:16:41;100821.03;;;1.48;85.28
16664;BME280;8445;51.270;9.434;2023-02-15T03:19:14;100818.47;;;1.45;85.08
16664;BME280;8445;51.270;9.434;2023-02-15T03:21:44;100826.31;;;1.43;85.67
16664;BME280;8445;51.270;9.434;2023-02-15T03:24:21;100809.78;;;1.44;85.80
16664;BME280;8445;51.270;9.434;2023-02-15T03:26:50;100815.00;;;1.44;85.84
16664;BME280;8445;51.270;9.434;2023-02-15T03:29:19;100809.84;;;1.40;85.82
16664;BME280;8445;51.270;9.434;2023-02-15T03:31:53;100812.44;;;1.40;85.53
16664;BME280;8445;51.270;9.434;2023-02-15T03:34:20;100809.88;;;1.37;85.68
16664;BME280;8445;51.270;9.434;2023-02-15T03:37:22;100813.38;;;1.36;87.91
16664;BME280;8445;51.270;9.434;2023-02-15T03:39:55;100806.44;;;1.35;85.98
16664;BME280;8445;51.270;9.434;2023-02-15T03:42:32;100804.72;;;1.35;86.35
16664;BME280;8445;51.270;9.434;2023-02-15T03:45:09;100807.38;;;1.30;86.69
16664;BME280;8445;51.270;9.434;2023-02-15T03:47:39;100800.53;;;1.23;86.03
16664;BME280;8445;51.270;9.434;2023-02-15T03:50:08;100797.91;;;1.23;85.74
16664;BME280;8445;51.270;9.434;2023-02-15T03:52:57;100793.56;;;1.24;85.99
16664;BME280;8445;51.270;9.434;2023-02-15T03:55:24;100797.03;;;1.24;85.66
16664;BME280;8445;51.270;9.434;2023-02-15T03:57:50;100784.00;;;1.24;85.96
16664;BME280;8445;51.270;9.434;2023-02-15T04:00:37;100790.94;;;1.25;85.50
16664;BME280;8445;51.270;9.434;2023-02-15T04:03:29;100785.72;;;1.25;86.38
16664;BME280;8445;51.270;9.434;2023-02-15T04:05:57;100790.09;;;1.25;85.82
16664;BME280;8445;51.270;9.434;2023-02-15T04:08:22;100791.78;;;1.27;85.68
16664;BME280;8445;51.270;9.434;2023-02-15T04:11:10;100787.47;;;1.23;85.06
16664;BME280;8445;51.270;9.434;2023-02-15T04:13:36;100786.63;;;1.23;85.10
16664;BME280;8445;51.270;9.434;2023-02-15T04:16:01;100785.81;;;1.21;85.56
16664;BME280;8445;51.270;9.434;2023-02-15T04:18:34;100776.28;;;1.16;85.57
16664;BME280;8445;51.270;9.434;2023-02-15T04:21:19;100785.84;;;1.17;85.82
16664;BME280;8445;51.270;9.434;2023-02-15T04:24:04;100780.63;;;1.17;85.30
16664;BME280;8445;51.270;9.434;2023-02-15T04:26:48;100781.56;;;1.15;85.00
16664;BME280;8445;51.270;9.434;2023-02-15T04:29:18;100777.22;;;1.14;85.00
16664;BME280;8445;51.270;9.434;2023-02-15T04:31:44;100785.09;;;1.11;84.73
16664;BME280;8445;51.270;9.434;2023-02-15T04:34:10;100779.91;;;1.08;84.95
16664;BME280;8445;51.270;9.434;2023-02-15T04:36:37;100780.78;;;1.07;84.86
16664;BME280;8445;51.270;9.434;2023-02-15T04:39:02;100779.91;;;1.08;84.74
16664;BME280;8445;51.270;9.434;2023-02-15T04:41:28;100783.34;;;1.10;85.03
16664;BME280;8445;51.270;9.434;2023-02-15T04:43:53;100778.16;;;1.10;85.03
16664;BME280;8445;51.270;9.434;2023-02-15T04:46:18;100777.25;;;1.11;84.54
16664;BME280;8445;51.270;9.434;2023-02-15T04:48:44;100779.00;;;1.10;85.39
16664;BME280;8445;51.270;9.434;2023-02-15T04:51:10;100785.13;;;1.08;85.12
16664;BME280;8445;51.270;9.434;2023-02-15T04:53:35;100785.16;;;1.05;85.48
16664;BME280;8445;51.270;9.434;2023-02-15T04:56:01;100771.34;;;0.99;85.25
16664;BME280;8445;51.270;9.434;2023-02-15T04:58:26;100778.22;;;1.02;85.41
16664;BME280;8445;51.270;9.434;2023-02-15T05:00:55;100774.78;;;1.01;85.75
16664;BME280;8445;51.270;9.434;2023-02-15T05:03:21;100776.53;;;0.99;86.11
16664;BME280;8445;51.270;9.434;2023-02-15T05:05:46;100761.72;;;1.03;85.97
16664;BME280;8445;51.270;9.434;2023-02-15T05:08:12;100764.31;;;1.03;85.03
16664;BME280;8445;51.270;9.434;2023-02-15T05:10:37;100757.41;;;1.00;nan
16664;BME280;8445;51.270;9.434;2023-02-15T05:13:02;100763.56;;;0.96;84.85
16664;BME280;8445;51.270;9.434;2023-02-15T05:15:28;100758.34;;;0.95;85.33
16664;BME280;8445;51.270;9.434;2023-02-15T05:17:53;100756.63;;;0.94;85.19
16664;BME280;8445;51.270;9.434;2023-02-15T05:20:19;100747.09;;;0.94;85.08
16664;BME280;8445;51.270;9.434;2023-02-15T05:22:44;100754.06;;;0.92;85.66
16664;BME280;8445;51.270;9.434;2023-02-15T05:25:10;100758.38;;;0.93;85.04
16664;BME280;8445;51.270;9.434;2023-02-15T05:27:53;100757.53;;;0.91;84.62
16664;BME280;8445;51.270;9.434;2023-02-15T05:30:37;100752.28;;;0.94;84.94
16664;BME280;8445;51.270;9.434;2023-02-15T05:33:06;100751.47;;;0.91;84.73
16664;BME280;8445;51.270;9.434;2023-02-15T05:35:32;100754.97;;;0.88;84.86
16664;BME280;8445;51.270;9.434;2023-02-15T05:37:58;100752.34;;;0.91;84.89
16664;BME280;8445;51.270;9.434;2023-02-15T05:40:23;100748.94;;;0.87;84.88
16664;BME280;8445;51.270;9.434;2023-02-15T05:42:49;100753.28;;;0.85;84.66
16664;BME280;8445;51.270;9.434;2023-02-15T05:45:14;100751.53;;;0.86;84.40
16664;BME280;8445;51.270;9.434;2023-02-15T05:47:41;100759.34;;;0.86;84.67
16664;BME280;8445;51.270;9.434;2023-02-15T05:50:07;100761.13;;;0.84;84.76
16664;BME280;8445;51.270;9.434;2023-02-15T05:52:33;100763.72;;;0.84;84.38
16664;BME280;8445;51.270;9.434;2023-02-15T05:54:59;100770.69;;;0.83;84.90
16664;BME280;8445;51.270;9.434;2023-02-15T05:57:26;100769.81;;;0.83;85.07
16664;BME280;8445;51.270;9.434;2023-02-15T05:59:51;100765.44;;;0.85;84.64
16664;BME280;8445;51.270;9.434;2023-02-15T06:02:17;100763.72;;;0.84;84.29
16664;BME280;8445;51.270;9.434;2023-02-15T06:04:42;100763.63;;;0.88;84.74
16664;BME280;8445;51.270;9.434;2023-02-15T06:07:07;100761.88;;;0.91;84.58
16664;BME280;8445;51.270;9.434;2023-02-15T06:09:33;100772.31;;;0.91;84.31
16664;BME280;8445;51.270;9.434;2023-02-15T06:11:58;100773.19;;;0.91;84.46
16664;BME280;8445;51.270;9.434;2023-02-15T06:14:24;100768.84;;;0.90;84.70
16664;BME280;8445;51.270;9.434;2023-02-15T06:16:49;100775.84;;;0.86;85.22
16664;BME280;8445;51.270;9.434;2023-02-15T06:19:15;100770.66;;;0.86;84.33
16664;BME280;8445;51.270;9.434;2023-02-15T06:21:40;100771.53;;;0.84;84.94
16664;BME280;8445;51.270;9.434;2023-02-15T06:24:08;100773.28;;;0.83;84.90
16664;BME280;8445;51.270;9.434;2023-02-15T06:26:33;100771.69;;;0.73;86.06
16664;BME280;8445;51.270;9.434;2023-02-15T06:28:59;100768.19;;;0.74;85.51
16664;BME280;8445;51.270;9.434;2023-02-15T06:31:24;100765.56;;;0.76;85.71
16664;BME280;8445;51.270;9.434;2023-02-15T06:33:50;100777.69;;;0.78;84.92
16664;BME280;8445;51.270;9.434;2023-02-15T06:36:15;100773.34;;;0.79;85.72
16664;BME280;8445;51.270;9.434;2023-02-15T06:38:41;100769.84;;;0.81;85.16
16664;BME280;8445;51.270;9.434;2023-02-15T06:41:07;100775.84;;;0.86;85.05
16664;BME280;8445;51.270;9.434;2023-02-15T06:43:32;100767.16;;;0.87;85.59
16664;BME280;8445;51.270;9.434;2023-02-15T06:45:59;100771.44;;;0.90;85.13
16664;BME280;8445;51.270;9.434;2023-02-15T06:48:25;100778.34;;;0.94;85.55
16664;BME280;8445;51.270;9.434;2023-02-15T06:50:51;100771.38;;;0.96;85.29
16664;BME280;8445;51.270;9.434;2023-02-15T06:53:17;100767.03;;;0.95;85.09
16664;BME280;8445;51.270;9.434;2023-02-15T06:55:42;100767.88;;;0.97;85.65
16664;BME280;8445;51.270;9.434;2023-02-15T06:58:08;100767.03;;;0.95;85.36
16664;BME280;8445;51.270;9.434;2023-02-15T07:00:33;100762.75;;;0.91;85.36
16664;BME280;8445;51.270;9.434;2023-02-15T07:02:59;100761.84;;;0.94;85.43
16664;BME280;8445;51.270;9.434;2023-02-15T07:05:26;100756.59;;;0.97;85.27
16664;BME280;8445;51.270;9.434;2023-02-15T07:07:57;100752.22;;;1.00;85.07
16664;BME280;8445;51.270;9.434;2023-02-15T07:10:22;100756.50;;;1.03;85.36
16664;BME280;8445;51.270;9.434;2023-02-15T07:12:58;100756.41;;;1.11;85.27
16664;BME280;8445;51.270;9.434;2023-02-15T07:15:23;100762.47;;;1.13;85.56
16664;BME280;8445;51.270;9.434;2023-02-15T07:17:49;100761.53;;;1.15;85.43
16664;BME280;8445;51.270;9.434;2023-02-15T07:20:17;100757.13;;;1.21;85.21
16664;BME280;8445;51.270;9.434;2023-02-15T07:22:43;100754.47;;;1.24;85.58
16664;BME280;8445;51.270;9.434;2023-02-15T07:25:10;100762.16;;;1.31;85.41
16664;BME280;8445;51.270;9.434;2023-02-15T07:27:36;100753.47;;;1.32;85.00
16664;BME280;8445;51.270;9.434;2023-02-15T07:30:03;100758.63;;;1.36;85.40
16664;BME280;8445;51.270;9.434;2023-02-15T07:32:30;100752.63;;;1.32;85.79
16664;BME280;8445;51.270;9.434;2023-02-15T07:34:57;100746.56;;;1.30;85.17
16664;BME280;8445;51.270;9.434;2023-02-15T07:37:25;100751.78;;;1.28;85.61
16664;BME280;8445;51.270;9.434;2023-02-15T07:39:51;100757.88;;;1.27;85.88
16664;BME280;8445;51.270;9.434;2023-02-15T07:42:17;100747.44;;;1.27;86.17
16664;BME280;8445;51.270;9.434;2023-02-15T07:44:43;100749.19;;;1.28;86.00
16664;BME280;8445;51.270;9.434;2023-02-15T07:47:08;100755.19;;;1.33;86.09
16664;BME280;8445;51.270;9.434;2023-02-15T07:49:34;100753.41;;;1.36;85.90
16664;BME280;8445;51.270;9.434;2023-02-15T07:52:01;100753.44;;;1.34;86.16
16664;BME280;8445;51.270;9.434;2023-02-15T07:54:27;100751.63;;;1.39;85.87
16664;BME280;8445;51.270;9.434;2023-02-15T07:56:52;100750.72;;;1.42;86.00
16664;BME280;8445;51.270;9.434;2023-02-15T07:59:17;100746.38;;;1.41;86.42
16664;BME280;8445;51.270;9.434;2023-02-15T08:01:43;100746.34;;;1.44;86.16
16664;BME280;8445;51.270;9.434;2023-02-15T08:04:09;100756.66;;;1.50;86.70
16664;BME280;8445;51.270;9.434;2023-02-15T08:06:37;100749.69;;;1.52;86.45
16664;BME280;8445;51.270;9.434;2023-02-15T08:09:07;100747.78;;;1.62;86.40
16664;BME280;8445;51.270;9.434;2023-02-15T08:11:35;100742.50;;;1.67;86.08
16664;BME280;8445;51.270;9.434;2023-02-15T08:21:32;100744.75;;;1.85;86.27
16664;BME280;8445;51.270;9.434;2023-02-15T08:23:58;100751.59;;;1.94;86.48
16664;BME280;8445;51.270;9.434;2023-02-15T08:26:25;100754.03;;;2.02;86.59
16664;BME280;8445;51.270;9.434;2023-02-15T08:28:52;100739.19;;;2.05;86.14
16664;BME280;8445;51.270;9.434;2023-02-15T08:31:18;100732.94;;;2.14;86.44
16664;BME280;8445;51.270;9.434;2023-02-15T08:33:44;100741.44;;;2.26;86.47
16664;BME280;8445;51.270;9.434;2023-02-15T08:36:13;100740.50;;;2.28;85.83
16664;BME280;8445;51.270;9.434;2023-02-15T08:38:40;100743.75;;;2.38;86.53
16664;BME280;8445;51.270;9.434;2023-02-15T08:41:13;100737.66;;;2.39;86.71
16664;BME280;8445;51.270;9.434;2023-02-15T08:43:39;100738.34;;;2.47;86.14
16664;BME280;8445;51.270;9.434;2023-02-15T08:46:06;100734.78;;;2.53;86.98
16664;BME280;8445;51.270;9.434;2023-02-15T08:48:32;100731.22;;;2.56;86.69
16664;BME280;8445;51.270;9.434;2023-02-15T08:51:17;100725.03;;;2.60;86.05
16664;BME280;8445;51.270;9.434;2023-02-15T08:53:46;100728.31;;;2.70;86.73
16664;BME280;8445;51.270;9.434;2023-02-15T08:56:14;100726.44;;;2.76;86.92
16664;BME280;8445;51.270;9.434;2023-02-15T08:58:40;100721.97;;;2.81;86.67
16664;BME280;8445;51.270;9.434;2023-02-15T09:01:13;100719.38;;;2.81;86.38
16664;BME280;8445;51.270;9.434;2023-02-15T09:03:44;100718.34;;;2.89;86.75
16664;BME280;8445;51.270;9.434;2023-02-15T09:06:10;100715.53;;;2.96;86.19
16664;BME280;8445;51.270;9.434;2023-02-15T09:08:36;100708.41;;;3.03;86.28
16664;BME280;8445;51.270;9.434;2023-02-15T09:11:09;100707.44;;;3.07;85.89
16664;BME280;8445;51.270;9.434;2023-02-15T09:13:36;100712.50;;;3.15;85.82
16664;BME280;8445;51.270;9.434;2023-02-15T09:16:04;100711.69;;;3.11;86.07
16664;BME280;8445;51.270;9.434;2023-02-15T09:18:32;100705.63;;;3.11;86.11
16664;BME280;8445;51.270;9.434;2023-02-15T09:21:11;100702.13;;;3.12;84.85
16664;BME280;8445;51.270;9.434;2023-02-15T09:23:39;100698.69;;;3.08;86.10
16664;BME280;8445;51.270;9.434;2023-02-15T09:26:07;100693.47;;;3.08;85.74
16664;BME280;8445;51.270;9.434;2023-02-15T09:28:34;100687.28;;;3.13;87.30
16664;BME280;8445;51.270;9.434;2023-02-15T09:33:38;100692.34;;;3.19;86.04
16664;BME280;8445;51.270;9.434;2023-02-15T09:36:05;100687.06;;;3.22;86.73
16664;BME280;8445;51.270;9.434;2023-02-15T09:38:38;100688.69;;;3.26;86.46
16664;BME280;8445;51.270;9.434;2023-02-15T09:44:07;100694.69;;;3.31;83.85
16664;BME280;8445;51.270;9.434;2023-02-15T09:58:02;100692.84;;;3.69;86.07
16664;BME280;8445;51.270;9.434;2023-02-15T10:00:50;100700.81;;;3.65;85.30
16664;BME280;8445;51.270;9.434;2023-02-15T10:08:39;100697.06;;;3.75;84.09
16664;BME280;8445;51.270;9.434;2023-02-15T10:14:24;100701.59;;;3.68;82.10
16664;BME280;8445;51.270;9.434;2023-02-15T10:20:00;100699.09;;;3.64;84.80
16664;BME280;8445;51.270;9.434;2023-02-15T10:25:21;100706.56;;;3.78;86.91
16664;BME280;8445;51.270;9.434;2023-02-15T10:27:49;100695.78;;;3.90;86.64
16664;BME280;8445;51.270;9.434;2023-02-15T10:33:03;100691.47;;;4.19;85.12
16664;BME280;8445;51.270;9.434;2023-02-15T10:44:06;100678.69;;;4.10;82.32
16664;BME280;8445;51.270;9.434;2023-02-15T10:49:51;100662.16;;;4.08;84.45
16664;BME280;8445;51.270;9.434;2023-02-15T10:55:31;100664.31;;;4.23;84.43
16664;BME280;8445;51.270;9.434;2023-02-15T11:00:57;100664.59;;;4.44;84.42
16664;BME280;8445;51.270;9.434;2023-02-15T11:03:33;100664.50;;;4.47;84.78
16664;BME280;8445;51.270;9.434;2023-02-15T11:06:04;100666.84;;;4.56;84.63
16664;BME280;8445;51.270;9.434;2023-02-15T11:08:34;100662.44;;;4.57;83.79
16664;BME280;8445;51.270;9.434;2023-02-15T11:11:09;100667.84;;;4.52;84.55
16664;BME280;8445;51.270;9.434;2023-02-15T11:13:45;100665.13;;;4.55;84.89
16664;BME280;8445;51.270;9.434;2023-02-15T11:16:18;100664.13;;;4.59;82.27
16664;BME280;8445;51.270;9.434;2023-02-15T11:19:01;100664.78;;;4.66;84.94
16664;BME280;8445;51.270;9.434;2023-02-15T11:21:33;100663.69;;;4.73;85.16
16664;BME280;8445;51.270;9.434;2023-02-15T11:24:13;100655.41;;;4.87;83.62
16664;BME280;8445;51.270;9.434;2023-02-15T11:26:43;100656.66;;;5.02;85.70
16664;BME280;8445;51.270;9.434;2023-02-15T11:32:13;100661.38;;;5.19;85.67
16664;BME280;8445;51.270;9.434;2023-02-15T11:37:33;100662.81;;;5.28;85.28
16664;BME280;8445;51.270;9.434;2023-02-15T11:40:03;100651.94;;;5.41;85.99
16664;BME280;8445;51.270;9.434;2023-02-15T11:42:40;100648.63;;;5.34;85.94
16664;BME280;8445;51.270;9.434;2023-02-15T11:45:28;100655.16;;;5.49;86.06
16664;BME280;8445;51.270;9.434;2023-02-15T11:47:56;100650.44;;;5.59;86.42
16664;BME280;8445;51.270;9.434;2023-02-15T11:50:27;100651.75;;;5.71;85.76
16664;BME280;8445;51.270;9.434;2023-02-15T11:52:59;100646.25;;;5.78;85.02
16664;BME280;8445;51.270;9.434;2023-02-15T11:55:27;100639.63;;;5.92;86.31
16664;BME280;8445;51.270;9.434;2023-02-15T12:00:58;100636.47;;;6.07;83.66
16664;BME280;8445;51.270;9.434;2023-02-15T12:03:44;100641.94;;;6.01;82.56
16664;BME280;8445;51.270;9.434;2023-02-15T12:06:17;100642.59;;;6.08;85.45
16664;BME280;8445;51.270;9.434;2023-02-15T12:08:53;100629.38;;;6.10;85.13
16664;BME280;8445;51.270;9.434;2023-02-15T12:11:29;100638.66;;;6.20;85.36
16664;BME280;8445;51.270;9.434;2023-02-15T12:14:03;100638.53;;;6.23;85.39
16664;BME280;8445;51.270;9.434;2023-02-15T12:16:39;100628.59;;;6.31;82.79
16664;BME280;8445;51.270;9.434;2023-02-15T12:19:19;100631.66;;;6.43;85.16
16664;BME280;8445;51.270;9.434;2023-02-15T12:21:52;100632.09;;;6.54;85.10
16664;BME280;8445;51.270;9.434;2023-02-15T12:24:27;100629.78;;;6.68;85.13
16664;BME280;8445;51.270;9.434;2023-02-15T12:26:59;100627.16;;;6.68;84.08
16664;BME280;8445;51.270;9.434;2023-02-15T12:29:29;100615.53;;;6.74;84.39
16664;BME280;8445;51.270;9.434;2023-02-15T12:31:56;100629.63;;;6.73;84.46
16664;BME280;8445;51.270;9.434;2023-02-15T12:34:32;100617.31;;;6.74;82.61
16664;BME280;8445;51.270;9.434;2023-02-15T12:37:02;100603.91;;;6.80;85.71
16664;BME280;8445;51.270;9.434;2023-02-15T12:39:34;100613.25;;;6.87;85.39
16664;BME280;8445;51.270;9.434;2023-02-15T12:42:08;100603.19;;;6.76;78.72
16664;BME280;8445;51.270;9.434;2023-02-15T12:44:56;100599.44;;;6.82;84.02
16664;BME280;8445;51.270;9.434;2023-02-15T12:47:22;100611.56;;;6.86;83.08
16664;BME280;8445;51.270;9.434;2023-02-15T12:50:14;100611.47;;;6.88;80.41
16664;BME280;8445;51.270;9.434;2023-02-15T12:52:46;100605.13;;;6.93;84.18
16664;BME280;8445;51.270;9.434;2023-02-15T12:55:26;100605.97;;;6.94;84.69
16664;BME280;8445;51.270;9.434;2023-02-15T12:58:18;100602.03;;;7.04;84.05
16664;BME280;8445;51.270;9.434;2023-02-15T13:00:44;100603.16;;;7.19;82.65
16664;BME280;8445;51.270;9.434;2023-02-15T13:03:20;100588.13;;;7.23;79.52
16664;BME280;8445;51.270;9.434;2023-02-15T13:05:50;100585.81;;;7.36;82.47
16664;BME280;8445;51.270;9.434;2023-02-15T13:08:33;100587.19;;;7.24;80.91
16664;BME280;8445;51.270;9.434;2023-02-15T13:11:03;100582.13;;;7.19;83.15
16664;BME280;8445;51.270;9.434;2023-02-15T13:13:31;100577.19;;;7.11;82.07
16664;BME280;8445;51.270;9.434;2023-02-15T13:16:11;100581.41;;;6.73;77.26
16664;BME280;8445;51.270;9.434;2023-02-15T13:18:49;100568.34;;;6.71;81.57
16664;BME280;8445;51.270;9.434;2023-02-15T13:21:19;100558.19;;;6.82;83.77
16664;BME280;8445;51.270;9.434;2023-02-15T13:23:48;100566.72;;;6.89;83.53
16664;BME280;8445;51.270;9.434;2023-02-15T13:26:20;100558.59;;;6.73;80.04
16664;BME280;8445;51.270;9.434;2023-02-15T13:28:49;100565.44;;;6.55;79.63
16664;BME280;8445;51.270;9.434;2023-02-15T13:31:23;100557.81;;;6.49;81.39
16664;BME280;8445;51.270;9.434;2023-02-15T13:34:03;100561.84;;;6.58;82.58
16664;BME280;8445;51.270;9.434;2023-02-15T13:36:54;100550.97;;;6.67;79.66
16664;BME280;8445;51.270;9.434;2023-02-15T13:39:31;100542.88;;;6.72;80.07
16664;BME280;8445;51.270;9.434;2023-02-15T13:42:11;100542.63;;;6.78;81.52
16664;BME280;8445;51.270;9.434;2023-02-15T13:51:02;100533.91;;;6.55;76.19
16664;BME280;8445;51.270;9.434;2023-02-15T14:10:30;100524.41;;;6.30;80.22
16664;BME280;8445;51.270;9.434;2023-02-15T14:13:27;100526.91;;;6.33;78.00
16664;BME280;8445;51.270;9.434;2023-02-15T14:25:37;100524.97;;;6.59;78.57
16664;BME280;8445;51.270;9.434;2023-02-15T14:28:21;100519.47;;;6.65;77.67
16664;BME280;8445;51.270;9.434;2023-02-15T14:30:53;100525.75;;;6.61;78.85
16664;BME280;8445;51.270;9.434;2023-02-15T14:33:38;100525.44;;;6.26;76.94
16664;BME280;8445;51.270;9.434;2023-02-15T14:36:13;100516.19;;;5.92;76.96
16664;BME280;8445;51.270;9.434;2023-02-15T14:39:02;100517.63;;;5.77;77.44
16664;BME280;8445;51.270;9.434;2023-02-15T14:41:59;100508.06;;;5.52;76.99
16664;BME280;8445;51.270;9.434;2023-02-15T14:44:47;100505.31;;;5.55;78.77
16664;BME280;8445;51.270;9.434;2023-02-15T14:47:26;100509.81;;;5.75;79.62
16664;BME280;8445;51.270;9.434;2023-02-15T14:49:58;100504.22;;;5.85;78.93
16664;BME280;8445;51.270;9.434;2023-02-15T14:52:26;100499.50;;;5.93;78.78
16664;BME280;8445;51.270;9.434;2023-02-15T14:54:55;100496.47;;;5.82;77.37
16664;BME280;8445;51.270;9.434;2023-02-15T14:57:25;100499.81;;;5.85;78.19
16664;BME280;8445;51.270;9.434;2023-02-15T15:00:01;100499.91;;;5.84;77.61
16664;BME280;8445;51.270;9.434;2023-02-15T15:02:43;100498.53;;;5.73;76.43
16664;BME280;8445;51.270;9.434;2023-02-15T15:05:29;100493.31;;;5.72;77.94
16664;BME280;8445;51.270;9.434;2023-02-15T15:08:02;100498.06;;;5.62;78.24
16664;BME280;8445;51.270;9.434;2023-02-15T15:10:44;100496.69;;;5.52;76.14
16664;BME280;8445;51.270;9.434;2023-02-15T15:19:02;100498.53;;;5.26;77.57
16664;BME280;8445;51.270;9.434;2023-02-15T15:21:56;100502.31;;;5.17;75.92
16664;BME280;8445;51.270;9.434;2023-02-15T15:32:59;100482.19;;;4.67;75.99
16664;BME280;8445;51.270;9.434;2023-02-15T15:35:49;100487.44;;;4.67;75.96
16664;BME280;8445;51.270;9.434;2023-02-15T15:41:27;100484.41;;;4.52;76.17
16664;BME280;8445;51.270;9.434;2023-02-15T15:44:11;100488.69;;;4.55;76.12
16664;BME280;8445;51.270;9.434;2023-02-15T15:49:24;100486.72;;;4.35;75.74
16664;BME280;8445;51.270;9.434;2023-02-15T15:51:52;100489.44;;;4.32;75.69
16664;BME280;8445;51.270;9.434;2023-02-15T15:54:27;100493.78;;;4.33;75.67
16664;BME280;8445;51.270;9.434;2023-02-15T15:56:55;100495.47;;;4.34;75.63
16664;BME280;8445;51.270;9.434;2023-02-15T15:59:25;100487.00;;;4.25;75.53